LHBP - BUDAPEST LISZT FERENC INTERNATIONAL AIRPORT

Compiled: 21:29:08 on 19/01/2018

Latest METAR/SPECI Reports

METAR LHBP 192100Z 29008KT CAVOK 00/M00 Q1012 NOSIG=

Previous reports

METAR LHBP 192030Z 30006KT CAVOK 01/00 Q1012 NOSIG=
METAR LHBP 192000Z 30009KT CAVOK 02/01 Q1011 NOSIG=
METAR LHBP 191930Z 28009KT CAVOK 02/01 Q1012 NOSIG=
METAR LHBP 191900Z 29011KT CAVOK 03/02 Q1011 NOSIG=

Latest TAF report

TAF LHBP 191715Z 1918/2018 28005KT CAVOK BECMG 1918/1920 30010KT BECMG 2000/2002 22004KT TEMPO 2004/2007 FZMIFG TEMPO 2009/2018 SCT033 SCT060 BKN130 BECMG 2015/2017 15004KT=

Valid WARNINGS

No valid warnings for LHBP